sensor_id;sensor_type;location;lat;lon;timestamp;P1;durP1;ratioP1;P2;durP2;ratioP2
13122;SDS011;6627;50.920;12.050;2022-11-04T00:02:02;9.93;;;6.47;;
13122;SDS011;6627;50.920;12.050;2022-11-04T00:04:32;9.37;;;5.80;;
13122;SDS011;6627;50.920;12.050;2022-11-04T00:06:59;8.57;;;5.73;;
13122;SDS011;6627;50.920;12.050;2022-11-04T00:09:48;9.37;;;5.70;;
13122;SDS011;6627;50.920;12.050;2022-11-04T00:12:16;10.23;;;5.83;;
13122;SDS011;6627;50.920;12.050;2022-11-04T00:14:53;9.17;;;5.70;;
13122;SDS011;6627;50.920;12.050;2022-11-04T00:17:41;14.00;;;6.57;;
13122;SDS011;6627;50.920;12.050;2022-11-04T00:20:09;11.43;;;6.00;;
13122;SDS011;6627;50.920;12.050;2022-11-04T00:23:10;7.47;;;5.70;;
13122;SDS011;6627;50.920;12.050;2022-11-04T00:25:55;9.97;;;5.33;;
13122;SDS011;6627;50.920;12.050;2022-11-04T00:28:41;7.83;;;5.30;;
13122;SDS011;6627;50.920;12.050;2022-11-04T00:31:09;8.47;;;5.87;;
13122;SDS011;6627;50.920;12.050;2022-11-04T00:33:56;10.50;;;6.00;;
13122;SDS011;6627;50.920;12.050;2022-11-04T00:36:26;8.93;;;5.67;;
13122;SDS011;6627;50.920;12.050;2022-11-04T00:38:54;11.80;;;6.50;;
13122;SDS011;6627;50.920;12.050;2022-11-04T00:41:22;9.83;;;5.83;;
13122;SDS011;6627;50.920;12.050;2022-11-04T00:43:53;13.20;;;6.27;;
13122;SDS011;6627;50.920;12.050;2022-11-04T00:46:22;11.07;;;6.40;;
13122;SDS011;6627;50.920;12.050;2022-11-04T00:48:51;8.70;;;6.00;;
13122;SDS011;6627;50.920;12.050;2022-11-04T00:51:18;7.17;;;5.13;;
13122;SDS011;6627;50.920;12.050;2022-11-04T00:53:48;10.00;;;5.60;;
13122;SDS011;6627;50.920;12.050;2022-11-04T00:56:17;8.57;;;5.13;;
13122;SDS011;6627;50.920;12.050;2022-11-04T00:58:45;10.03;;;5.80;;
13122;SDS011;6627;50.920;12.050;2022-11-04T01:01:15;7.57;;;5.13;;
13122;SDS011;6627;50.920;12.050;2022-11-04T01:03:44;7.60;;;5.03;;
13122;SDS011;6627;50.920;12.050;2022-11-04T01:06:13;6.57;;;4.77;;
13122;SDS011;6627;50.920;12.050;2022-11-04T01:08:41;7.17;;;4.93;;
13122;SDS011;6627;50.920;12.050;2022-11-04T01:11:10;8.47;;;5.33;;
13122;SDS011;6627;50.920;12.050;2022-11-04T01:13:39;6.70;;;5.03;;
13122;SDS011;6627;50.920;12.050;2022-11-04T01:16:09;8.27;;;4.80;;
13122;SDS011;6627;50.920;12.050;2022-11-04T01:18:37;7.27;;;4.90;;
13122;SDS011;6627;50.920;12.050;2022-11-04T01:21:05;7.40;;;4.93;;
13122;SDS011;6627;50.920;12.050;2022-11-04T01:23:34;8.83;;;5.13;;
13122;SDS011;6627;50.920;12.050;2022-11-04T01:26:03;8.77;;;5.37;;
13122;SDS011;6627;50.920;12.050;2022-11-04T01:28:34;9.67;;;5.30;;
13122;SDS011;6627;50.920;12.050;2022-11-04T01:31:04;10.60;;;5.60;;
13122;SDS011;6627;50.920;12.050;2022-11-04T01:33:32;9.93;;;5.27;;
13122;SDS011;6627;50.920;12.050;2022-11-04T01:36:01;8.50;;;5.67;;
13122;SDS011;6627;50.920;12.050;2022-11-04T01:38:31;13.00;;;6.17;;
13122;SDS011;6627;50.920;12.050;2022-11-04T01:40:59;9.43;;;6.17;;
13122;SDS011;6627;50.920;12.050;2022-11-04T01:43:42;11.57;;;6.90;;
13122;SDS011;6627;50.920;12.050;2022-11-04T01:46:16;9.57;;;6.77;;
13122;SDS011;6627;50.920;12.050;2022-11-04T01:48:51;13.90;;;7.33;;
13122;SDS011;6627;50.920;12.050;2022-11-04T01:51:23;14.23;;;7.40;;
13122;SDS011;6627;50.920;12.050;2022-11-04T01:53:53;10.43;;;6.50;;
13122;SDS011;6627;50.920;12.050;2022-11-04T01:56:22;11.73;;;7.47;;
13122;SDS011;6627;50.920;12.050;2022-11-04T01:58:54;13.27;;;7.20;;
13122;SDS011;6627;50.920;12.050;2022-11-04T02:01:25;12.67;;;6.63;;
13122;SDS011;6627;50.920;12.050;2022-11-04T02:03:53;9.43;;;7.07;;
13122;SDS011;6627;50.920;12.050;2022-11-04T02:06:45;9.83;;;7.20;;
13122;SDS011;6627;50.920;12.050;2022-11-04T02:09:14;9.97;;;8.07;;
13122;SDS011;6627;50.920;12.050;2022-11-04T02:11:44;14.87;;;7.63;;
13122;SDS011;6627;50.920;12.050;2022-11-04T02:14:31;12.43;;;7.33;;
13122;SDS011;6627;50.920;12.050;2022-11-04T02:17:02;11.00;;;6.93;;
13122;SDS011;6627;50.920;12.050;2022-11-04T02:19:47;12.93;;;7.30;;
13122;SDS011;6627;50.920;12.050;2022-11-04T02:22:51;11.87;;;7.23;;
13122;SDS011;6627;50.920;12.050;2022-11-04T02:25:51;9.87;;;7.07;;
13122;SDS011;6627;50.920;12.050;2022-11-04T02:29:09;12.70;;;7.90;;
13122;SDS011;6627;50.920;12.050;2022-11-04T02:31:52;14.90;;;7.60;;
13122;SDS011;6627;50.920;12.050;2022-11-04T02:34:28;12.70;;;7.67;;
13122;SDS011;6627;50.920;12.050;2022-11-04T02:37:08;13.93;;;7.87;;
13122;SDS011;6627;50.920;12.050;2022-11-04T02:39:49;13.10;;;7.90;;
13122;SDS011;6627;50.920;12.050;2022-11-04T02:42:24;12.17;;;8.00;;
13122;SDS011;6627;50.920;12.050;2022-11-04T02:45:00;15.00;;;8.40;;
13122;SDS011;6627;50.920;12.050;2022-11-04T02:47:41;12.53;;;7.90;;
13122;SDS011;6627;50.920;12.050;2022-11-04T02:50:16;13.20;;;8.33;;
13122;SDS011;6627;50.920;12.050;2022-11-04T02:52:54;12.33;;;7.90;;
13122;SDS011;6627;50.920;12.050;2022-11-04T02:55:26;10.00;;;7.80;;
13122;SDS011;6627;50.920;12.050;2022-11-04T02:57:58;10.33;;;7.53;;
13122;SDS011;6627;50.920;12.050;2022-11-04T03:00:31;12.90;;;8.23;;
13122;SDS011;6627;50.920;12.050;2022-11-04T03:03:03;11.40;;;8.17;;
13122;SDS011;6627;50.920;12.050;2022-11-04T03:05:35;10.73;;;7.70;;
13122;SDS011;6627;50.920;12.050;2022-11-04T03:08:06;11.10;;;7.57;;
13122;SDS011;6627;50.920;12.050;2022-11-04T03:10:40;10.53;;;7.57;;
13122;SDS011;6627;50.920;12.050;2022-11-04T03:13:12;10.07;;;7.30;;
13122;SDS011;6627;50.920;12.050;2022-11-04T03:15:46;10.30;;;7.50;;
13122;SDS011;6627;50.920;12.050;2022-11-04T03:18:21;9.60;;;7.23;;
13122;SDS011;6627;50.920;12.050;2022-11-04T03:20:56;9.43;;;6.37;;
13122;SDS011;6627;50.920;12.050;2022-11-04T03:23:27;10.70;;;7.23;;
13122;SDS011;6627;50.920;12.050;2022-11-04T03:25:56;9.77;;;6.90;;
13122;SDS011;6627;50.920;12.050;2022-11-04T03:28:34;10.13;;;6.73;;
13122;SDS011;6627;50.920;12.050;2022-11-04T03:31:10;10.13;;;6.90;;
13122;SDS011;6627;50.920;12.050;2022-11-04T03:33:46;8.33;;;5.87;;
13122;SDS011;6627;50.920;12.050;2022-11-04T03:36:15;7.70;;;5.73;;
13122;SDS011;6627;50.920;12.050;2022-11-04T03:38:45;6.33;;;5.37;;
13122;SDS011;6627;50.920;12.050;2022-11-04T03:41:13;6.33;;;5.10;;
13122;SDS011;6627;50.920;12.050;2022-11-04T03:43:45;6.87;;;5.30;;
13122;SDS011;6627;50.920;12.050;2022-11-04T03:46:14;7.03;;;5.10;;
13122;SDS011;6627;50.920;12.050;2022-11-04T03:48:42;9.43;;;5.00;;
13122;SDS011;6627;50.920;12.050;2022-11-04T03:51:11;7.57;;;4.90;;
13122;SDS011;6627;50.920;12.050;2022-11-04T03:53:39;4.77;;;4.27;;
13122;SDS011;6627;50.920;12.050;2022-11-04T03:56:13;6.30;;;4.13;;
13122;SDS011;6627;50.920;12.050;2022-11-04T03:58:56;4.70;;;4.23;;
13122;SDS011;6627;50.920;12.050;2022-11-04T04:01:37;4.90;;;3.93;;
13122;SDS011;6627;50.920;12.050;2022-11-04T04:04:14;5.57;;;4.47;;
13122;SDS011;6627;50.920;12.050;2022-11-04T04:06:48;6.70;;;4.60;;
13122;SDS011;6627;50.920;12.050;2022-11-04T04:09:20;5.37;;;4.43;;
13122;SDS011;6627;50.920;12.050;2022-11-04T04:11:52;6.83;;;4.20;;
13122;SDS011;6627;50.920;12.050;2022-11-04T04:14:26;5.13;;;4.00;;
13122;SDS011;6627;50.920;12.050;2022-11-04T04:17:10;5.33;;;4.13;;
13122;SDS011;6627;50.920;12.050;2022-11-04T04:19:44;5.57;;;4.37;;
13122;SDS011;6627;50.920;12.050;2022-11-04T04:22:17;4.77;;;4.37;;
13122;SDS011;6627;50.920;12.050;2022-11-04T04:24:48;4.90;;;4.03;;
13122;SDS011;6627;50.920;12.050;2022-11-04T04:27:36;5.70;;;4.40;;
13122;SDS011;6627;50.920;12.050;2022-11-04T04:30:07;6.40;;;4.50;;
13122;SDS011;6627;50.920;12.050;2022-11-04T04:32:39;7.03;;;4.57;;
13122;SDS011;6627;50.920;12.050;2022-11-04T04:35:11;7.30;;;4.13;;
13122;SDS011;6627;50.920;12.050;2022-11-04T04:37:59;6.23;;;4.27;;
13122;SDS011;6627;50.920;12.050;2022-11-04T04:40:43;5.13;;;4.17;;
13122;SDS011;6627;50.920;12.050;2022-11-04T04:43:33;6.10;;;4.50;;
13122;SDS011;6627;50.920;12.050;2022-11-04T04:46:20;8.40;;;4.43;;
13122;SDS011;6627;50.920;12.050;2022-11-04T04:48:50;5.20;;;4.50;;
13122;SDS011;6627;50.920;12.050;2022-11-04T04:51:17;6.40;;;4.30;;
13122;SDS011;6627;50.920;12.050;2022-11-04T04:53:45;5.20;;;4.07;;
13122;SDS011;6627;50.920;12.050;2022-11-04T04:56:13;5.60;;;4.07;;
13122;SDS011;6627;50.920;12.050;2022-11-04T04:58:41;8.90;;;4.80;;
13122;SDS011;6627;50.920;12.050;2022-11-04T05:01:08;4.33;;;3.93;;
13122;SDS011;6627;50.920;12.050;2022-11-04T05:03:36;5.27;;;4.37;;
13122;SDS011;6627;50.920;12.050;2022-11-04T05:06:05;6.73;;;4.53;;
13122;SDS011;6627;50.920;12.050;2022-11-04T05:08:33;6.40;;;4.40;;
13122;SDS011;6627;50.920;12.050;2022-11-04T05:11:01;6.07;;;4.70;;
13122;SDS011;6627;50.920;12.050;2022-11-04T05:13:28;6.13;;;4.53;;
13122;SDS011;6627;50.920;12.050;2022-11-04T05:15:56;6.67;;;4.87;;
13122;SDS011;6627;50.920;12.050;2022-11-04T05:18:28;5.60;;;4.77;;
13122;SDS011;6627;50.920;12.050;2022-11-04T05:20:56;6.30;;;5.20;;
13122;SDS011;6627;50.920;12.050;2022-11-04T05:23:25;7.90;;;6.03;;
13122;SDS011;6627;50.920;12.050;2022-11-04T05:25:53;13.20;;;9.63;;
13122;SDS011;6627;50.920;12.050;2022-11-04T05:28:24;13.03;;;10.00;;
13122;SDS011;6627;50.920;12.050;2022-11-04T05:30:52;8.43;;;7.40;;
13122;SDS011;6627;50.920;12.050;2022-11-04T05:33:20;7.80;;;6.83;;
13122;SDS011;6627;50.920;12.050;2022-11-04T05:35:47;12.20;;;6.80;;
13122;SDS011;6627;50.920;12.050;2022-11-04T05:38:15;9.90;;;6.90;;
13122;SDS011;6627;50.920;12.050;2022-11-04T05:40:44;10.90;;;7.47;;
13122;SDS011;6627;50.920;12.050;2022-11-04T05:43:11;11.03;;;7.83;;
13122;SDS011;6627;50.920;12.050;2022-11-04T05:45:39;12.07;;;7.90;;
13122;SDS011;6627;50.920;12.050;2022-11-04T05:48:07;12.70;;;7.93;;
13122;SDS011;6627;50.920;12.050;2022-11-04T05:50:34;9.80;;;7.23;;
13122;SDS011;6627;50.920;12.050;2022-11-04T05:53:02;9.97;;;7.80;;
13122;SDS011;6627;50.920;12.050;2022-11-04T05:55:30;10.13;;;7.70;;
13122;SDS011;6627;50.920;12.050;2022-11-04T05:57:59;12.07;;;8.47;;
13122;SDS011;6627;50.920;12.050;2022-11-04T06:00:27;11.50;;;8.27;;
13122;SDS011;6627;50.920;12.050;2022-11-04T06:02:55;9.60;;;8.37;;
13122;SDS011;6627;50.920;12.050;2022-11-04T06:05:22;10.70;;;7.87;;
13122;SDS011;6627;50.920;12.050;2022-11-04T06:07:50;10.43;;;8.67;;
13122;SDS011;6627;50.920;12.050;2022-11-04T06:10:18;9.50;;;8.47;;
13122;SDS011;6627;50.920;12.050;2022-11-04T06:12:46;13.37;;;9.27;;
13122;SDS011;6627;50.920;12.050;2022-11-04T06:15:15;10.43;;;8.57;;
13122;SDS011;6627;50.920;12.050;2022-11-04T06:17:42;11.37;;;8.47;;
13122;SDS011;6627;50.920;12.050;2022-11-04T06:20:10;11.83;;;8.63;;
13122;SDS011;6627;50.920;12.050;2022-11-04T06:22:38;10.47;;;8.40;;
13122;SDS011;6627;50.920;12.050;2022-11-04T06:25:06;12.53;;;8.97;;
13122;SDS011;6627;50.920;12.050;2022-11-04T06:27:35;10.10;;;8.40;;
13122;SDS011;6627;50.920;12.050;2022-11-04T06:30:03;14.53;;;9.60;;
13122;SDS011;6627;50.920;12.050;2022-11-04T06:32:33;10.83;;;9.53;;
13122;SDS011;6627;50.920;12.050;2022-11-04T06:35:01;8.40;;;7.50;;
13122;SDS011;6627;50.920;12.050;2022-11-04T06:37:28;10.93;;;8.33;;
13122;SDS011;6627;50.920;12.050;2022-11-04T06:39:56;10.27;;;8.27;;
13122;SDS011;6627;50.920;12.050;2022-11-04T06:42:24;7.60;;;6.80;;
13122;SDS011;6627;50.920;12.050;2022-11-04T06:44:52;10.23;;;6.77;;
13122;SDS011;6627;50.920;12.050;2022-11-04T06:47:20;8.13;;;6.40;;
13122;SDS011;6627;50.920;12.050;2022-11-04T06:49:49;10.67;;;7.27;;
13122;SDS011;6627;50.920;12.050;2022-11-04T06:52:17;10.50;;;6.67;;
13122;SDS011;6627;50.920;12.050;2022-11-04T06:54:46;9.67;;;6.87;;
13122;SDS011;6627;50.920;12.050;2022-11-04T06:57:13;7.90;;;7.00;;
13122;SDS011;6627;50.920;12.050;2022-11-04T06:59:41;10.50;;;8.33;;
13122;SDS011;6627;50.920;12.050;2022-11-04T07:02:09;11.70;;;8.43;;
13122;SDS011;6627;50.920;12.050;2022-11-04T07:04:37;10.33;;;7.57;;
13122;SDS011;6627;50.920;12.050;2022-11-04T07:07:06;14.00;;;8.43;;
13122;SDS011;6627;50.920;12.050;2022-11-04T07:09:33;12.23;;;8.20;;
13122;SDS011;6627;50.920;12.050;2022-11-04T07:12:02;9.50;;;8.33;;
13122;SDS011;6627;50.920;12.050;2022-11-04T07:14:30;13.47;;;8.00;;
13122;SDS011;6627;50.920;12.050;2022-11-04T07:16:58;9.83;;;7.63;;
13122;SDS011;6627;50.920;12.050;2022-11-04T07:19:26;10.07;;;7.13;;
13122;SDS011;6627;50.920;12.050;2022-11-04T07:21:53;9.03;;;6.73;;
13122;SDS011;6627;50.920;12.050;2022-11-04T07:24:23;9.13;;;6.87;;
13122;SDS011;6627;50.920;12.050;2022-11-04T07:26:52;7.93;;;6.90;;
13122;SDS011;6627;50.920;12.050;2022-11-04T07:29:20;8.60;;;6.90;;
13122;SDS011;6627;50.920;12.050;2022-11-04T07:31:50;9.17;;;6.97;;
13122;SDS011;6627;50.920;12.050;2022-11-04T07:34:18;7.67;;;6.30;;
13122;SDS011;6627;50.920;12.050;2022-11-04T07:36:46;11.10;;;6.90;;
13122;SDS011;6627;50.920;12.050;2022-11-04T07:39:14;17.40;;;11.00;;
13122;SDS011;6627;50.920;12.050;2022-11-04T07:41:43;11.17;;;7.77;;
13122;SDS011;6627;50.920;12.050;2022-11-04T07:44:11;9.60;;;7.00;;
13122;SDS011;6627;50.920;12.050;2022-11-04T07:46:39;6.70;;;6.00;;
13122;SDS011;6627;50.920;12.050;2022-11-04T07:49:07;7.10;;;5.53;;
13122;SDS011;6627;50.920;12.050;2022-11-04T07:51:35;6.80;;;5.90;;
13122;SDS011;6627;50.920;12.050;2022-11-04T07:54:03;7.40;;;5.97;;
13122;SDS011;6627;50.920;12.050;2022-11-04T07:56:30;6.47;;;5.53;;
13122;SDS011;6627;50.920;12.050;2022-11-04T07:58:59;10.47;;;6.27;;
13122;SDS011;6627;50.920;12.050;2022-11-04T08:01:27;6.37;;;5.67;;
13122;SDS011;6627;50.920;12.050;2022-11-04T08:03:55;6.53;;;5.50;;
13122;SDS011;6627;50.920;12.050;2022-11-04T08:06:22;5.83;;;4.93;;
13122;SDS011;6627;50.920;12.050;2022-11-04T08:08:50;4.27;;;3.87;;
13122;SDS011;6627;50.920;12.050;2022-11-04T08:11:19;3.53;;;3.07;;
13122;SDS011;6627;50.920;12.050;2022-11-04T08:13:49;4.33;;;2.83;;
13122;SDS011;6627;50.920;12.050;2022-11-04T08:16:20;3.47;;;2.60;;
13122;SDS011;6627;50.920;12.050;2022-11-04T08:18:50;3.23;;;2.47;;
13122;SDS011;6627;50.920;12.050;2022-11-04T08:21:18;2.70;;;2.50;;
13122;SDS011;6627;50.920;12.050;2022-11-04T08:23:46;2.60;;;2.40;;
13122;SDS011;6627;50.920;12.050;2022-11-04T08:26:16;2.57;;;2.37;;
13122;SDS011;6627;50.920;12.050;2022-11-04T08:28:45;2.80;;;2.50;;
13122;SDS011;6627;50.920;12.050;2022-11-04T08:31:14;2.67;;;2.23;;
13122;SDS011;6627;50.920;12.050;2022-11-04T08:33:44;2.73;;;2.07;;
13122;SDS011;6627;50.920;12.050;2022-11-04T08:36:13;2.57;;;1.90;;
13122;SDS011;6627;50.920;12.050;2022-11-04T08:38:43;3.17;;;2.33;;
13122;SDS011;6627;50.920;12.050;2022-11-04T08:41:11;2.40;;;2.00;;
13122;SDS011;6627;50.920;12.050;2022-11-04T08:43:41;3.93;;;2.13;;
13122;SDS011;6627;50.920;12.050;2022-11-04T08:46:09;2.40;;;1.90;;
13122;SDS011;6627;50.920;12.050;2022-11-04T08:48:37;3.17;;;1.90;;
13122;SDS011;6627;50.920;12.050;2022-11-04T08:51:11;2.10;;;1.90;;
13122;SDS011;6627;50.920;12.050;2022-11-04T08:53:40;3.67;;;1.90;;
13122;SDS011;6627;50.920;12.050;2022-11-04T08:56:09;2.53;;;1.87;;
13122;SDS011;6627;50.920;12.050;2022-11-04T08:58:38;6.13;;;1.90;;
13122;SDS011;6627;50.920;12.050;2022-11-04T09:01:06;2.03;;;1.80;;
13122;SDS011;6627;50.920;12.050;2022-11-04T09:03:37;3.20;;;1.90;;
13122;SDS011;6627;50.920;12.050;2022-11-04T09:06:08;1.93;;;1.70;;
13122;SDS011;6627;50.920;12.050;2022-11-04T09:08:37;1.77;;;1.63;;
13122;SDS011;6627;50.920;12.050;2022-11-04T09:11:05;2.67;;;1.43;;
13122;SDS011;6627;50.920;12.050;2022-11-04T09:13:35;2.43;;;1.90;;
13122;SDS011;6627;50.920;12.050;2022-11-04T09:16:04;2.00;;;1.70;;
13122;SDS011;6627;50.920;12.050;2022-11-04T09:18:32;2.10;;;1.60;;
13122;SDS011;6627;50.920;12.050;2022-11-04T09:21:00;1.67;;;1.30;;
13122;SDS011;6627;50.920;12.050;2022-11-04T09:23:29;2.13;;;1.27;;
13122;SDS011;6627;50.920;12.050;2022-11-04T09:25:57;2.03;;;1.27;;
13122;SDS011;6627;50.920;12.050;2022-11-04T09:28:30;3.20;;;1.20;;
13122;SDS011;6627;50.920;12.050;2022-11-04T09:30:58;1.30;;;1.20;;
13122;SDS011;6627;50.920;12.050;2022-11-04T09:33:30;2.17;;;1.10;;
13122;SDS011;6627;50.920;12.050;2022-11-04T09:35:58;2.60;;;1.00;;
13122;SDS011;6627;50.920;12.050;2022-11-04T09:38:26;4.20;;;1.43;;
13122;SDS011;6627;50.920;12.050;2022-11-04T09:40:55;3.00;;;1.40;;
13122;SDS011;6627;50.920;12.050;2022-11-04T09:43:27;1.77;;;1.10;;
13122;SDS011;6627;50.920;12.050;2022-11-04T09:46:07;1.93;;;1.30;;
13122;SDS011;6627;50.920;12.050;2022-11-04T09:48:38;1.83;;;1.30;;
13122;SDS011;6627;50.920;12.050;2022-11-04T09:51:09;1.80;;;1.10;;
13122;SDS011;6627;50.920;12.050;2022-11-04T09:53:37;1.70;;;1.20;;
13122;SDS011;6627;50.920;12.050;2022-11-04T09:56:14;5.27;;;1.20;;
13122;SDS011;6627;50.920;12.050;2022-11-04T09:58:45;1.70;;;1.23;;
13122;SDS011;6627;50.920;12.050;2022-11-04T10:01:17;1.47;;;1.23;;
13122;SDS011;6627;50.920;12.050;2022-11-04T10:04:07;2.00;;;1.30;;
13122;SDS011;6627;50.920;12.050;2022-11-04T10:06:52;1.20;;;1.10;;
13122;SDS011;6627;50.920;12.050;2022-11-04T10:09:35;1.20;;;1.10;;
13122;SDS011;6627;50.920;12.050;2022-11-04T10:12:17;1.57;;;1.03;;
13122;SDS011;6627;50.920;12.050;2022-11-04T10:15:03;2.30;;;1.33;;
13122;SDS011;6627;50.920;12.050;2022-11-04T10:17:58;2.73;;;1.30;;
13122;SDS011;6627;50.920;12.050;2022-11-04T10:20:40;4.03;;;1.47;;
13122;SDS011;6627;50.920;12.050;2022-11-04T10:23:19;1.60;;;1.10;;
13122;SDS011;6627;50.920;12.050;2022-11-04T10:25:48;1.87;;;1.33;;
13122;SDS011;6627;50.920;12.050;2022-11-04T10:28:26;1.50;;;1.13;;
13122;SDS011;6627;50.920;12.050;2022-11-04T10:31:01;1.30;;;1.13;;
13122;SDS011;6627;50.920;12.050;2022-11-04T10:33:31;2.47;;;1.40;;
13122;SDS011;6627;50.920;12.050;2022-11-04T10:36:02;2.43;;;1.10;;
13122;SDS011;6627;50.920;12.050;2022-11-04T10:38:35;3.60;;;1.40;;
13122;SDS011;6627;50.920;12.050;2022-11-04T10:41:11;1.67;;;1.00;;
13122;SDS011;6627;50.920;12.050;2022-11-04T10:43:47;3.17;;;1.63;;
13122;SDS011;6627;50.920;12.050;2022-11-04T10:46:21;1.47;;;1.30;;
13122;SDS011;6627;50.920;12.050;2022-11-04T10:48:59;2.80;;;1.10;;
13122;SDS011;6627;50.920;12.050;2022-11-04T10:51:30;1.27;;;1.17;;
13122;SDS011;6627;50.920;12.050;2022-11-04T10:53:59;3.27;;;1.10;;
13122;SDS011;6627;50.920;12.050;2022-11-04T10:56:30;3.17;;;1.10;;
13122;SDS011;6627;50.920;12.050;2022-11-04T10:59:11;2.83;;;1.47;;
13122;SDS011;6627;50.920;12.050;2022-11-04T11:01:48;2.13;;;1.17;;
13122;SDS011;6627;50.920;12.050;2022-11-04T11:04:23;2.37;;;1.17;;
13122;SDS011;6627;50.920;12.050;2022-11-04T11:06:53;2.17;;;1.33;;
13122;SDS011;6627;50.920;12.050;2022-11-04T11:09:23;4.47;;;1.37;;
13122;SDS011;6627;50.920;12.050;2022-11-04T11:11:54;3.50;;;1.23;;
13122;SDS011;6627;50.920;12.050;2022-11-04T11:14:32;2.73;;;1.30;;
13122;SDS011;6627;50.920;12.050;2022-11-04T11:20:14;4.83;;;1.30;;
13122;SDS011;6627;50.920;12.050;2022-11-04T11:22:47;3.07;;;1.50;;
13122;SDS011;6627;50.920;12.050;2022-11-04T11:25:22;1.90;;;1.20;;
13122;SDS011;6627;50.920;12.050;2022-11-04T11:27:52;3.90;;;1.33;;
13122;SDS011;6627;50.920;12.050;2022-11-04T11:30:25;3.17;;;1.50;;
13122;SDS011;6627;50.920;12.050;2022-11-04T11:32:58;2.50;;;1.43;;
13122;SDS011;6627;50.920;12.050;2022-11-04T11:35:33;5.17;;;1.40;;
13122;SDS011;6627;50.920;12.050;2022-11-04T11:38:13;2.63;;;1.17;;
13122;SDS011;6627;50.920;12.050;2022-11-04T11:40:44;3.13;;;1.07;;
13122;SDS011;6627;50.920;12.050;2022-11-04T11:43:19;6.10;;;1.10;;
13122;SDS011;6627;50.920;12.050;2022-11-04T11:45:52;2.30;;;1.00;;
13122;SDS011;6627;50.920;12.050;2022-11-04T11:48:28;7.13;;;1.47;;
13122;SDS011;6627;50.920;12.050;2022-11-04T11:50:58;2.23;;;1.23;;
13122;SDS011;6627;50.920;12.050;2022-11-04T11:53:26;3.20;;;1.30;;
13122;SDS011;6627;50.920;12.050;2022-11-04T11:56:01;2.30;;;1.20;;
13122;SDS011;6627;50.920;12.050;2022-11-04T11:58:40;2.03;;;1.20;;
13122;SDS011;6627;50.920;12.050;2022-11-04T12:01:14;4.37;;;1.63;;
13122;SDS011;6627;50.920;12.050;2022-11-04T12:03:48;6.60;;;2.40;;
13122;SDS011;6627;50.920;12.050;2022-11-04T12:06:23;5.47;;;1.80;;
13122;SDS011;6627;50.920;12.050;2022-11-04T12:09:01;3.83;;;2.40;;
13122;SDS011;6627;50.920;12.050;2022-11-04T12:11:45;3.07;;;1.33;;
13122;SDS011;6627;50.920;12.050;2022-11-04T12:14:23;4.70;;;1.40;;
13122;SDS011;6627;50.920;12.050;2022-11-04T12:17:01;3.83;;;1.30;;
13122;SDS011;6627;50.920;12.050;2022-11-04T12:19:40;4.23;;;1.40;;
13122;SDS011;6627;50.920;12.050;2022-11-04T12:22:20;4.73;;;1.50;;
13122;SDS011;6627;50.920;12.050;2022-11-04T12:24:56;3.57;;;1.40;;
13122;SDS011;6627;50.920;12.050;2022-11-04T12:27:36;3.20;;;1.27;;
13122;SDS011;6627;50.920;12.050;2022-11-04T12:30:12;2.33;;;1.30;;
13122;SDS011;6627;50.920;12.050;2022-11-04T12:32:50;3.37;;;1.60;;
13122;SDS011;6627;50.920;12.050;2022-11-04T12:35:31;6.63;;;1.53;;
13122;SDS011;6627;50.920;12.050;2022-11-04T12:38:21;2.20;;;1.40;;
13122;SDS011;6627;50.920;12.050;2022-11-04T12:41:14;4.70;;;1.30;;
13122;SDS011;6627;50.920;12.050;2022-11-04T12:43:53;4.53;;;1.10;;
13122;SDS011;6627;50.920;12.050;2022-11-04T12:46:31;2.67;;;1.20;;
13122;SDS011;6627;50.920;12.050;2022-11-04T12:52:14;6.20;;;1.90;;
13122;SDS011;6627;50.920;12.050;2022-11-04T12:54:57;3.70;;;1.43;;
13122;SDS011;6627;50.920;12.050;2022-11-04T12:57:35;5.23;;;1.30;;
13122;SDS011;6627;50.920;12.050;2022-11-04T13:00:11;4.57;;;1.47;;
13122;SDS011;6627;50.920;12.050;2022-11-04T13:02:43;4.63;;;1.30;;
13122;SDS011;6627;50.920;12.050;2022-11-04T13:05:20;4.97;;;1.70;;
13122;SDS011;6627;50.920;12.050;2022-11-04T13:08:02;3.90;;;1.40;;
13122;SDS011;6627;50.920;12.050;2022-11-04T13:10:38;2.67;;;1.37;;
13122;SDS011;6627;50.920;12.050;2022-11-04T13:13:11;4.43;;;1.30;;
13122;SDS011;6627;50.920;12.050;2022-11-04T13:15:45;6.03;;;1.43;;
13122;SDS011;6627;50.920;12.050;2022-11-04T13:18:15;4.03;;;1.50;;
13122;SDS011;6627;50.920;12.050;2022-11-04T13:20:48;5.07;;;1.70;;
13122;SDS011;6627;50.920;12.050;2022-11-04T13:23:21;3.17;;;1.80;;
13122;SDS011;6627;50.920;12.050;2022-11-04T13:25:53;4.37;;;1.80;;
13122;SDS011;6627;50.920;12.050;2022-11-04T13:28:23;4.40;;;1.70;;
13122;SDS011;6627;50.920;12.050;2022-11-04T13:30:53;5.20;;;1.40;;
13122;SDS011;6627;50.920;12.050;2022-11-04T13:33:30;3.33;;;1.53;;
13122;SDS011;6627;50.920;12.050;2022-11-04T13:36:11;5.63;;;1.50;;
13122;SDS011;6627;50.920;12.050;2022-11-04T13:38:47;3.23;;;1.40;;
13122;SDS011;6627;50.920;12.050;2022-11-04T13:44:22;4.17;;;1.40;;
13122;SDS011;6627;50.920;12.050;2022-11-04T13:46:53;5.00;;;1.40;;
13122;SDS011;6627;50.920;12.050;2022-11-04T13:49:23;4.23;;;1.50;;
13122;SDS011;6627;50.920;12.050;2022-11-04T13:54:44;5.63;;;2.17;;
13122;SDS011;6627;50.920;12.050;2022-11-04T13:57:20;8.93;;;2.80;;
13122;SDS011;6627;50.920;12.050;2022-11-04T14:00:07;5.40;;;2.20;;
13122;SDS011;6627;50.920;12.050;2022-11-04T14:02:47;4.20;;;1.70;;
13122;SDS011;6627;50.920;12.050;2022-11-04T14:08:12;9.37;;;1.60;;
13122;SDS011;6627;50.920;12.050;2022-11-04T14:10:43;4.43;;;1.60;;
13122;SDS011;6627;50.920;12.050;2022-11-04T14:13:40;3.47;;;1.60;;
13122;SDS011;6627;50.920;12.050;2022-11-04T14:22:15;5.33;;;1.77;;
13122;SDS011;6627;50.920;12.050;2022-11-04T14:24:48;4.13;;;2.27;;
13122;SDS011;6627;50.920;12.050;2022-11-04T14:27:24;3.43;;;2.70;;
13122;SDS011;6627;50.920;12.050;2022-11-04T14:29:56;7.13;;;2.90;;
13122;SDS011;6627;50.920;12.050;2022-11-04T14:32:25;7.13;;;2.97;;
13122;SDS011;6627;50.920;12.050;2022-11-04T14:34:58;6.57;;;2.60;;
13122;SDS011;6627;50.920;12.050;2022-11-04T14:37:31;4.63;;;2.00;;
13122;SDS011;6627;50.920;12.050;2022-11-04T14:40:01;5.80;;;2.63;;
13122;SDS011;6627;50.920;12.050;2022-11-04T14:42:44;7.90;;;2.43;;
13122;SDS011;6627;50.920;12.050;2022-11-04T14:45:16;5.77;;;1.73;;
13122;SDS011;6627;50.920;12.050;2022-11-04T14:47:47;3.53;;;1.60;;
13122;SDS011;6627;50.920;12.050;2022-11-04T14:50:23;4.47;;;1.80;;
13122;SDS011;6627;50.920;12.050;2022-11-04T14:52:54;6.47;;;1.63;;
13122;SDS011;6627;50.920;12.050;2022-11-04T14:55:25;5.93;;;2.10;;
13122;SDS011;6627;50.920;12.050;2022-11-04T14:57:55;6.47;;;1.90;;
13122;SDS011;6627;50.920;12.050;2022-11-04T15:00:27;4.73;;;2.10;;
13122;SDS011;6627;50.920;12.050;2022-11-04T15:02:58;4.77;;;2.10;;
13122;SDS011;6627;50.920;12.050;2022-11-04T15:05:45;5.33;;;2.47;;
13122;SDS011;6627;50.920;12.050;2022-11-04T15:08:24;7.10;;;2.67;;
13122;SDS011;6627;50.920;12.050;2022-11-04T15:11:03;9.07;;;2.53;;
13122;SDS011;6627;50.920;12.050;2022-11-04T15:13:34;8.13;;;2.23;;
13122;SDS011;6627;50.920;12.050;2022-11-04T15:16:06;6.10;;;2.47;;
13122;SDS011;6627;50.920;12.050;2022-11-04T15:18:37;5.07;;;2.13;;
13122;SDS011;6627;50.920;12.050;2022-11-04T15:21:06;6.97;;;2.00;;
13122;SDS011;6627;50.920;12.050;2022-11-04T15:23:35;5.90;;;2.53;;
13122;SDS011;6627;50.920;12.050;2022-11-04T15:26:13;6.23;;;1.90;;
13122;SDS011;6627;50.920;12.050;2022-11-04T15:28:48;5.77;;;1.90;;
13122;SDS011;6627;50.920;12.050;2022-11-04T15:31:18;4.33;;;2.20;;
13122;SDS011;6627;50.920;12.050;2022-11-04T15:33:48;5.33;;;2.30;;
13122;SDS011;6627;50.920;12.050;2022-11-04T15:36:19;4.40;;;2.63;;
13122;SDS011;6627;50.920;12.050;2022-11-04T15:38:50;9.03;;;2.47;;
13122;SDS011;6627;50.920;12.050;2022-11-04T15:41:22;4.47;;;2.60;;